sensor_id;sensor_type;location;lat;lon;timestamp;P1;durP1;ratioP1;P2;durP2;ratioP2
4698;SDS011;33708;49.466;11.176;2022-07-09T00:02:23;11.80;;;2.00;;
4698;SDS011;33708;49.466;11.176;2022-07-09T00:04:48;8.20;;;2.53;;
4698;SDS011;33708;49.466;11.176;2022-07-09T00:07:14;7.13;;;2.23;;
4698;SDS011;33708;49.466;11.176;2022-07-09T00:09:40;7.37;;;2.30;;
4698;SDS011;33708;49.466;11.176;2022-07-09T00:12:06;9.90;;;2.83;;
4698;SDS011;33708;49.466;11.176;2022-07-09T00:14:32;7.47;;;2.07;;
4698;SDS011;33708;49.466;11.176;2022-07-09T00:16:58;7.30;;;2.50;;
4698;SDS011;33708;49.466;11.176;2022-07-09T00:19:23;6.37;;;1.83;;
4698;SDS011;33708;49.466;11.176;2022-07-09T00:21:49;9.10;;;2.30;;
4698;SDS011;33708;49.466;11.176;2022-07-09T00:24:15;9.53;;;2.90;;
4698;SDS011;33708;49.466;11.176;2022-07-09T00:26:40;13.03;;;2.20;;
4698;SDS011;33708;49.466;11.176;2022-07-09T00:29:06;10.80;;;2.60;;
4698;SDS011;33708;49.466;11.176;2022-07-09T00:31:32;8.60;;;1.93;;
4698;SDS011;33708;49.466;11.176;2022-07-09T00:33:58;7.40;;;2.17;;
4698;SDS011;33708;49.466;11.176;2022-07-09T00:36:23;8.33;;;2.73;;
4698;SDS011;33708;49.466;11.176;2022-07-09T00:38:49;9.57;;;2.40;;
4698;SDS011;33708;49.466;11.176;2022-07-09T00:41:14;9.77;;;2.27;;
4698;SDS011;33708;49.466;11.176;2022-07-09T00:43:45;7.23;;;2.27;;
4698;SDS011;33708;49.466;11.176;2022-07-09T00:46:12;7.10;;;2.77;;
4698;SDS011;33708;49.466;11.176;2022-07-09T00:48:38;10.20;;;2.83;;
4698;SDS011;33708;49.466;11.176;2022-07-09T00:51:03;6.30;;;2.20;;
4698;SDS011;33708;49.466;11.176;2022-07-09T00:53:30;14.40;;;2.40;;
4698;SDS011;33708;49.466;11.176;2022-07-09T00:55:56;9.07;;;2.47;;
4698;SDS011;33708;49.466;11.176;2022-07-09T00:58:22;8.87;;;2.80;;
4698;SDS011;33708;49.466;11.176;2022-07-09T01:00:48;6.50;;;2.10;;
4698;SDS011;33708;49.466;11.176;2022-07-09T01:03:14;10.43;;;2.63;;
4698;SDS011;33708;49.466;11.176;2022-07-09T01:05:40;8.73;;;2.83;;
4698;SDS011;33708;49.466;11.176;2022-07-09T01:08:06;9.93;;;3.00;;
4698;SDS011;33708;49.466;11.176;2022-07-09T01:10:33;8.03;;;2.97;;
4698;SDS011;33708;49.466;11.176;2022-07-09T01:12:59;7.00;;;2.93;;
4698;SDS011;33708;49.466;11.176;2022-07-09T01:15:27;7.20;;;2.50;;
4698;SDS011;33708;49.466;11.176;2022-07-09T01:17:53;6.93;;;2.83;;
4698;SDS011;33708;49.466;11.176;2022-07-09T01:20:24;9.47;;;2.70;;
4698;SDS011;33708;49.466;11.176;2022-07-09T01:22:50;11.40;;;3.00;;
4698;SDS011;33708;49.466;11.176;2022-07-09T01:25:17;8.10;;;2.53;;
4698;SDS011;33708;49.466;11.176;2022-07-09T01:27:44;6.70;;;2.47;;
4698;SDS011;33708;49.466;11.176;2022-07-09T01:30:11;7.83;;;2.70;;
4698;SDS011;33708;49.466;11.176;2022-07-09T01:32:47;16.47;;;2.53;;
4698;SDS011;33708;49.466;11.176;2022-07-09T01:35:16;7.73;;;2.70;;
4698;SDS011;33708;49.466;11.176;2022-07-09T01:37:42;6.90;;;2.50;;
4698;SDS011;33708;49.466;11.176;2022-07-09T01:40:07;9.27;;;3.17;;
4698;SDS011;33708;49.466;11.176;2022-07-09T01:42:33;8.37;;;2.50;;
4698;SDS011;33708;49.466;11.176;2022-07-09T01:44:59;7.37;;;2.73;;
4698;SDS011;33708;49.466;11.176;2022-07-09T01:47:24;7.50;;;2.50;;
4698;SDS011;33708;49.466;11.176;2022-07-09T01:49:50;6.80;;;2.23;;
4698;SDS011;33708;49.466;11.176;2022-07-09T01:52:16;7.07;;;3.10;;
4698;SDS011;33708;49.466;11.176;2022-07-09T01:54:41;9.10;;;2.30;;
4698;SDS011;33708;49.466;11.176;2022-07-09T01:57:07;9.20;;;2.80;;
4698;SDS011;33708;49.466;11.176;2022-07-09T01:59:33;7.47;;;2.77;;
4698;SDS011;33708;49.466;11.176;2022-07-09T02:01:58;7.17;;;2.80;;
4698;SDS011;33708;49.466;11.176;2022-07-09T02:04:24;7.10;;;2.60;;
4698;SDS011;33708;49.466;11.176;2022-07-09T02:06:49;12.13;;;2.70;;
4698;SDS011;33708;49.466;11.176;2022-07-09T02:09:15;7.53;;;2.90;;
4698;SDS011;33708;49.466;11.176;2022-07-09T02:11:41;7.30;;;2.73;;
4698;SDS011;33708;49.466;11.176;2022-07-09T02:14:07;12.23;;;3.10;;
4698;SDS011;33708;49.466;11.176;2022-07-09T02:16:32;7.17;;;2.77;;
4698;SDS011;33708;49.466;11.176;2022-07-09T02:18:58;6.60;;;2.80;;
4698;SDS011;33708;49.466;11.176;2022-07-09T02:21:24;9.20;;;2.90;;
4698;SDS011;33708;49.466;11.176;2022-07-09T02:23:49;7.73;;;3.03;;
4698;SDS011;33708;49.466;11.176;2022-07-09T02:26:15;7.77;;;2.60;;
4698;SDS011;33708;49.466;11.176;2022-07-09T02:28:41;7.43;;;3.13;;
4698;SDS011;33708;49.466;11.176;2022-07-09T02:31:06;8.87;;;2.80;;
4698;SDS011;33708;49.466;11.176;2022-07-09T02:33:32;8.40;;;3.03;;
4698;SDS011;33708;49.466;11.176;2022-07-09T02:35:58;10.00;;;3.17;;
4698;SDS011;33708;49.466;11.176;2022-07-09T02:38:24;8.33;;;2.77;;
4698;SDS011;33708;49.466;11.176;2022-07-09T02:40:50;7.27;;;2.53;;
4698;SDS011;33708;49.466;11.176;2022-07-09T02:43:15;8.17;;;2.90;;
4698;SDS011;33708;49.466;11.176;2022-07-09T02:45:41;8.33;;;3.10;;
4698;SDS011;33708;49.466;11.176;2022-07-09T02:48:07;10.37;;;3.10;;
4698;SDS011;33708;49.466;11.176;2022-07-09T02:50:32;5.47;;;2.33;;
4698;SDS011;33708;49.466;11.176;2022-07-09T02:52:58;11.33;;;2.60;;
4698;SDS011;33708;49.466;11.176;2022-07-09T02:55:23;5.30;;;2.47;;
4698;SDS011;33708;49.466;11.176;2022-07-09T02:57:49;10.60;;;3.30;;
4698;SDS011;33708;49.466;11.176;2022-07-09T03:00:15;5.77;;;2.63;;
4698;SDS011;33708;49.466;11.176;2022-07-09T03:02:40;8.37;;;2.50;;
4698;SDS011;33708;49.466;11.176;2022-07-09T03:05:06;11.70;;;2.50;;
4698;SDS011;33708;49.466;11.176;2022-07-09T03:07:35;7.27;;;2.60;;
4698;SDS011;33708;49.466;11.176;2022-07-09T03:10:01;13.83;;;3.13;;
4698;SDS011;33708;49.466;11.176;2022-07-09T03:12:26;9.17;;;2.53;;
4698;SDS011;33708;49.466;11.176;2022-07-09T03:14:52;6.73;;;2.30;;
4698;SDS011;33708;49.466;11.176;2022-07-09T03:17:17;8.23;;;2.33;;
4698;SDS011;33708;49.466;11.176;2022-07-09T03:19:44;9.23;;;2.60;;
4698;SDS011;33708;49.466;11.176;2022-07-09T03:22:10;8.80;;;2.90;;
4698;SDS011;33708;49.466;11.176;2022-07-09T03:24:37;5.93;;;2.57;;
4698;SDS011;33708;49.466;11.176;2022-07-09T03:27:02;7.23;;;2.63;;
4698;SDS011;33708;49.466;11.176;2022-07-09T03:29:28;7.13;;;2.70;;
4698;SDS011;33708;49.466;11.176;2022-07-09T03:31:54;12.93;;;2.93;;
4698;SDS011;33708;49.466;11.176;2022-07-09T03:34:19;8.63;;;2.40;;
4698;SDS011;33708;49.466;11.176;2022-07-09T03:36:45;8.20;;;4.63;;
4698;SDS011;33708;49.466;11.176;2022-07-09T03:39:10;11.00;;;4.20;;
4698;SDS011;33708;49.466;11.176;2022-07-09T03:41:36;8.90;;;3.60;;
4698;SDS011;33708;49.466;11.176;2022-07-09T03:44:02;7.47;;;3.47;;
4698;SDS011;33708;49.466;11.176;2022-07-09T03:46:27;12.10;;;3.97;;
4698;SDS011;33708;49.466;11.176;2022-07-09T03:48:54;9.03;;;3.20;;
4698;SDS011;33708;49.466;11.176;2022-07-09T03:51:19;6.80;;;2.80;;
4698;SDS011;33708;49.466;11.176;2022-07-09T03:53:45;11.77;;;3.27;;
4698;SDS011;33708;49.466;11.176;2022-07-09T03:56:11;14.60;;;3.00;;
4698;SDS011;33708;49.466;11.176;2022-07-09T03:58:37;10.47;;;3.33;;
4698;SDS011;33708;49.466;11.176;2022-07-09T04:01:03;7.07;;;2.50;;
4698;SDS011;33708;49.466;11.176;2022-07-09T04:03:28;15.43;;;3.33;;
4698;SDS011;33708;49.466;11.176;2022-07-09T04:05:54;7.90;;;2.80;;
4698;SDS011;33708;49.466;11.176;2022-07-09T04:08:19;6.93;;;2.63;;
4698;SDS011;33708;49.466;11.176;2022-07-09T04:10:45;11.13;;;2.90;;
4698;SDS011;33708;49.466;11.176;2022-07-09T04:13:11;7.40;;;2.70;;
4698;SDS011;33708;49.466;11.176;2022-07-09T04:15:36;6.73;;;2.43;;
4698;SDS011;33708;49.466;11.176;2022-07-09T04:18:02;10.00;;;2.83;;
4698;SDS011;33708;49.466;11.176;2022-07-09T04:20:28;8.80;;;2.20;;
4698;SDS011;33708;49.466;11.176;2022-07-09T04:22:53;10.77;;;3.07;;
4698;SDS011;33708;49.466;11.176;2022-07-09T04:25:19;7.40;;;2.77;;
4698;SDS011;33708;49.466;11.176;2022-07-09T04:27:46;9.93;;;3.10;;
4698;SDS011;33708;49.466;11.176;2022-07-09T04:30:12;7.43;;;2.53;;
4698;SDS011;33708;49.466;11.176;2022-07-09T04:32:38;8.87;;;2.47;;
4698;SDS011;33708;49.466;11.176;2022-07-09T04:35:04;6.17;;;2.27;;
4698;SDS011;33708;49.466;11.176;2022-07-09T04:37:30;7.03;;;2.70;;
4698;SDS011;33708;49.466;11.176;2022-07-09T04:39:55;6.43;;;2.60;;
4698;SDS011;33708;49.466;11.176;2022-07-09T04:42:21;9.97;;;2.90;;
4698;SDS011;33708;49.466;11.176;2022-07-09T04:44:47;8.23;;;2.30;;
4698;SDS011;33708;49.466;11.176;2022-07-09T04:47:13;7.13;;;2.77;;
4698;SDS011;33708;49.466;11.176;2022-07-09T04:49:38;8.70;;;2.70;;
4698;SDS011;33708;49.466;11.176;2022-07-09T04:52:04;6.90;;;2.90;;
4698;SDS011;33708;49.466;11.176;2022-07-09T04:54:30;9.40;;;2.73;;
4698;SDS011;33708;49.466;11.176;2022-07-09T04:56:56;13.27;;;3.30;;
4698;SDS011;33708;49.466;11.176;2022-07-09T04:59:22;8.37;;;2.90;;
4698;SDS011;33708;49.466;11.176;2022-07-09T05:01:47;7.30;;;2.90;;
4698;SDS011;33708;49.466;11.176;2022-07-09T05:04:15;11.70;;;2.70;;
4698;SDS011;33708;49.466;11.176;2022-07-09T05:06:40;10.83;;;3.10;;
4698;SDS011;33708;49.466;11.176;2022-07-09T05:09:06;10.70;;;2.67;;
4698;SDS011;33708;49.466;11.176;2022-07-09T05:11:33;6.60;;;2.43;;
4698;SDS011;33708;49.466;11.176;2022-07-09T05:13:58;9.50;;;2.67;;
4698;SDS011;33708;49.466;11.176;2022-07-09T05:16:24;7.13;;;2.90;;
4698;SDS011;33708;49.466;11.176;2022-07-09T05:18:50;11.00;;;3.17;;
4698;SDS011;33708;49.466;11.176;2022-07-09T05:21:15;9.70;;;3.17;;
4698;SDS011;33708;49.466;11.176;2022-07-09T05:23:41;8.40;;;3.23;;
4698;SDS011;33708;49.466;11.176;2022-07-09T05:26:06;8.37;;;2.70;;
4698;SDS011;33708;49.466;11.176;2022-07-09T05:28:32;7.83;;;2.50;;
4698;SDS011;33708;49.466;11.176;2022-07-09T05:30:58;7.03;;;2.37;;
4698;SDS011;33708;49.466;11.176;2022-07-09T05:33:23;9.40;;;2.83;;
4698;SDS011;33708;49.466;11.176;2022-07-09T05:35:52;15.57;;;3.30;;
4698;SDS011;33708;49.466;11.176;2022-07-09T05:38:18;6.70;;;2.67;;
4698;SDS011;33708;49.466;11.176;2022-07-09T05:40:43;8.33;;;2.70;;
4698;SDS011;33708;49.466;11.176;2022-07-09T05:43:09;10.17;;;2.97;;
4698;SDS011;33708;49.466;11.176;2022-07-09T05:45:35;7.30;;;2.57;;
4698;SDS011;33708;49.466;11.176;2022-07-09T05:48:00;13.33;;;2.50;;
4698;SDS011;33708;49.466;11.176;2022-07-09T05:50:26;7.20;;;2.90;;
4698;SDS011;33708;49.466;11.176;2022-07-09T05:52:51;10.23;;;2.50;;
4698;SDS011;33708;49.466;11.176;2022-07-09T05:55:17;7.20;;;2.83;;
4698;SDS011;33708;49.466;11.176;2022-07-09T05:57:43;9.07;;;2.70;;
4698;SDS011;33708;49.466;11.176;2022-07-09T06:00:09;7.00;;;2.83;;
4698;SDS011;33708;49.466;11.176;2022-07-09T06:02:35;12.43;;;2.70;;
4698;SDS011;33708;49.466;11.176;2022-07-09T06:05:00;6.43;;;2.70;;
4698;SDS011;33708;49.466;11.176;2022-07-09T06:07:26;5.67;;;2.23;;
4698;SDS011;33708;49.466;11.176;2022-07-09T06:09:51;15.83;;;2.70;;
4698;SDS011;33708;49.466;11.176;2022-07-09T06:12:17;8.10;;;2.63;;
4698;SDS011;33708;49.466;11.176;2022-07-09T06:14:43;7.53;;;2.67;;
4698;SDS011;33708;49.466;11.176;2022-07-09T06:17:08;7.03;;;2.23;;
4698;SDS011;33708;49.466;11.176;2022-07-09T06:19:34;14.37;;;3.17;;
4698;SDS011;33708;49.466;11.176;2022-07-09T06:22:02;6.53;;;2.10;;
4698;SDS011;33708;49.466;11.176;2022-07-09T06:24:30;7.93;;;2.70;;
4698;SDS011;33708;49.466;11.176;2022-07-09T06:26:56;7.53;;;2.60;;
4698;SDS011;33708;49.466;11.176;2022-07-09T06:29:22;8.77;;;2.30;;
4698;SDS011;33708;49.466;11.176;2022-07-09T06:31:47;8.63;;;2.27;;
4698;SDS011;33708;49.466;11.176;2022-07-09T06:34:13;8.53;;;2.70;;
4698;SDS011;33708;49.466;11.176;2022-07-09T06:36:39;7.90;;;2.53;;
4698;SDS011;33708;49.466;11.176;2022-07-09T06:39:06;8.20;;;2.63;;
4698;SDS011;33708;49.466;11.176;2022-07-09T06:41:50;15.60;;;3.10;;
4698;SDS011;33708;49.466;11.176;2022-07-09T06:44:16;7.90;;;2.43;;
4698;SDS011;33708;49.466;11.176;2022-07-09T06:46:41;6.67;;;2.87;;
4698;SDS011;33708;49.466;11.176;2022-07-09T06:49:07;8.70;;;2.37;;
4698;SDS011;33708;49.466;11.176;2022-07-09T06:51:33;7.97;;;2.93;;
4698;SDS011;33708;49.466;11.176;2022-07-09T06:53:58;8.77;;;2.63;;
4698;SDS011;33708;49.466;11.176;2022-07-09T06:56:24;8.57;;;2.20;;
4698;SDS011;33708;49.466;11.176;2022-07-09T06:58:50;9.13;;;2.97;;
4698;SDS011;33708;49.466;11.176;2022-07-09T07:01:15;7.30;;;2.53;;
4698;SDS011;33708;49.466;11.176;2022-07-09T07:03:41;10.70;;;2.57;;
4698;SDS011;33708;49.466;11.176;2022-07-09T07:06:06;12.53;;;3.07;;
4698;SDS011;33708;49.466;11.176;2022-07-09T07:08:32;10.40;;;2.80;;
4698;SDS011;33708;49.466;11.176;2022-07-09T07:10:58;7.40;;;2.50;;
4698;SDS011;33708;49.466;11.176;2022-07-09T07:13:24;10.43;;;2.63;;
4698;SDS011;33708;49.466;11.176;2022-07-09T07:15:50;7.33;;;3.10;;
4698;SDS011;33708;49.466;11.176;2022-07-09T07:18:15;9.27;;;3.07;;
4698;SDS011;33708;49.466;11.176;2022-07-09T07:20:42;11.07;;;2.80;;
4698;SDS011;33708;49.466;11.176;2022-07-09T07:23:08;12.07;;;2.90;;
4698;SDS011;33708;49.466;11.176;2022-07-09T07:25:33;10.00;;;2.50;;
4698;SDS011;33708;49.466;11.176;2022-07-09T07:27:59;8.10;;;2.50;;
4698;SDS011;33708;49.466;11.176;2022-07-09T07:30:26;10.83;;;2.90;;
4698;SDS011;33708;49.466;11.176;2022-07-09T07:32:52;9.33;;;3.40;;
4698;SDS011;33708;49.466;11.176;2022-07-09T07:35:17;8.33;;;2.40;;
4698;SDS011;33708;49.466;11.176;2022-07-09T07:37:43;9.50;;;2.40;;
4698;SDS011;33708;49.466;11.176;2022-07-09T07:40:12;8.73;;;3.00;;
4698;SDS011;33708;49.466;11.176;2022-07-09T07:42:37;10.10;;;2.87;;
4698;SDS011;33708;49.466;11.176;2022-07-09T07:45:03;9.17;;;2.40;;
4698;SDS011;33708;49.466;11.176;2022-07-09T07:47:29;8.80;;;2.57;;
4698;SDS011;33708;49.466;11.176;2022-07-09T07:49:55;7.17;;;2.23;;
4698;SDS011;33708;49.466;11.176;2022-07-09T07:52:21;7.27;;;2.20;;
4698;SDS011;33708;49.466;11.176;2022-07-09T07:54:46;9.10;;;2.23;;
4698;SDS011;33708;49.466;11.176;2022-07-09T07:57:12;6.07;;;1.87;;
4698;SDS011;33708;49.466;11.176;2022-07-09T07:59:37;10.93;;;1.80;;
4698;SDS011;33708;49.466;11.176;2022-07-09T08:02:03;5.73;;;1.70;;
4698;SDS011;33708;49.466;11.176;2022-07-09T08:04:29;9.73;;;2.42;;
4698;SDS011;33708;49.466;11.176;2022-07-09T08:06:56;6.43;;;2.10;;
4698;SDS011;33708;49.466;11.176;2022-07-09T08:09:22;7.77;;;1.93;;
4698;SDS011;33708;49.466;11.176;2022-07-09T08:11:47;6.30;;;1.60;;
4698;SDS011;33708;49.466;11.176;2022-07-09T08:14:13;7.60;;;2.00;;
4698;SDS011;33708;49.466;11.176;2022-07-09T08:16:38;6.43;;;2.13;;
4698;SDS011;33708;49.466;11.176;2022-07-09T08:19:04;9.40;;;2.80;;
4698;SDS011;33708;49.466;11.176;2022-07-09T08:21:30;8.85;;;2.70;;
4698;SDS011;33708;49.466;11.176;2022-07-09T08:23:55;7.35;;;2.40;;
4698;SDS011;33708;49.466;11.176;2022-07-09T08:26:23;9.10;;;2.23;;
4698;SDS011;33708;49.466;11.176;2022-07-09T08:28:50;9.70;;;2.50;;
4698;SDS011;33708;49.466;11.176;2022-07-09T08:31:16;8.07;;;2.23;;
4698;SDS011;33708;49.466;11.176;2022-07-09T08:33:43;7.83;;;2.20;;
4698;SDS011;33708;49.466;11.176;2022-07-09T08:36:08;8.13;;;2.40;;
4698;SDS011;33708;49.466;11.176;2022-07-09T08:38:34;6.80;;;2.20;;
4698;SDS011;33708;49.466;11.176;2022-07-09T08:41:00;7.90;;;2.30;;
4698;SDS011;33708;49.466;11.176;2022-07-09T08:43:26;16.33;;;2.30;;
4698;SDS011;33708;49.466;11.176;2022-07-09T08:45:53;11.60;;;1.83;;
4698;SDS011;33708;49.466;11.176;2022-07-09T08:48:19;6.40;;;2.20;;
4698;SDS011;33708;49.466;11.176;2022-07-09T08:50:46;7.97;;;2.07;;
4698;SDS011;33708;49.466;11.176;2022-07-09T08:53:14;7.87;;;2.23;;
4698;SDS011;33708;49.466;11.176;2022-07-09T08:55:42;8.27;;;2.03;;
4698;SDS011;33708;49.466;11.176;2022-07-09T08:58:09;11.10;;;2.50;;
4698;SDS011;33708;49.466;11.176;2022-07-09T09:00:37;7.70;;;1.90;;
4698;SDS011;33708;49.466;11.176;2022-07-09T09:03:03;12.80;;;1.97;;
4698;SDS011;33708;49.466;11.176;2022-07-09T09:05:29;9.13;;;2.27;;
4698;SDS011;33708;49.466;11.176;2022-07-09T09:07:55;9.10;;;2.17;;
4698;SDS011;33708;49.466;11.176;2022-07-09T09:10:21;7.75;;;2.33;;
4698;SDS011;33708;49.466;11.176;2022-07-09T09:12:48;7.57;;;2.17;;
4698;SDS011;33708;49.466;11.176;2022-07-09T09:15:17;7.30;;;2.05;;
4698;SDS011;33708;49.466;11.176;2022-07-09T09:17:44;7.60;;;1.80;;
4698;SDS011;33708;49.466;11.176;2022-07-09T09:20:11;7.53;;;1.60;;
4698;SDS011;33708;49.466;11.176;2022-07-09T09:25:21;9.97;;;2.17;;
4698;SDS011;33708;49.466;11.176;2022-07-09T09:27:51;6.63;;;2.00;;
4698;SDS011;33708;49.466;11.176;2022-07-09T09:30:17;5.73;;;1.90;;
4698;SDS011;33708;49.466;11.176;2022-07-09T09:32:43;9.63;;;2.10;;
4698;SDS011;33708;49.466;11.176;2022-07-09T09:35:09;7.83;;;1.93;;
4698;SDS011;33708;49.466;11.176;2022-07-09T09:37:35;8.90;;;2.33;;
4698;SDS011;33708;49.466;11.176;2022-07-09T09:40:10;7.67;;;1.90;;
4698;SDS011;33708;49.466;11.176;2022-07-09T09:42:40;7.20;;;1.47;;
4698;SDS011;33708;49.466;11.176;2022-07-09T09:45:09;6.57;;;1.60;;
4698;SDS011;33708;49.466;11.176;2022-07-09T09:47:38;6.57;;;1.30;;
4698;SDS011;33708;49.466;11.176;2022-07-09T09:50:04;9.80;;;2.20;;
4698;SDS011;33708;49.466;11.176;2022-07-09T09:52:30;9.60;;;1.80;;
4698;SDS011;33708;49.466;11.176;2022-07-09T09:54:58;5.90;;;1.50;;
4698;SDS011;33708;49.466;11.176;2022-07-09T09:57:26;5.30;;;1.47;;
4698;SDS011;33708;49.466;11.176;2022-07-09T09:59:53;8.40;;;2.00;;
4698;SDS011;33708;49.466;11.176;2022-07-09T10:02:20;7.10;;;2.00;;
4698;SDS011;33708;49.466;11.176;2022-07-09T10:04:46;8.70;;;1.97;;
4698;SDS011;33708;49.466;11.176;2022-07-09T10:07:12;7.93;;;2.20;;
4698;SDS011;33708;49.466;11.176;2022-07-09T10:09:39;7.17;;;1.60;;
4698;SDS011;33708;49.466;11.176;2022-07-09T10:12:06;7.13;;;1.70;;
4698;SDS011;33708;49.466;11.176;2022-07-09T10:14:34;8.53;;;1.77;;
4698;SDS011;33708;49.466;11.176;2022-07-09T10:17:11;6.70;;;1.70;;
4698;SDS011;33708;49.466;11.176;2022-07-09T10:19:39;7.07;;;1.73;;
4698;SDS011;33708;49.466;11.176;2022-07-09T10:22:34;6.23;;;1.53;;
4698;SDS011;33708;49.466;11.176;2022-07-09T10:25:05;6.50;;;1.60;;
4698;SDS011;33708;49.466;11.176;2022-07-09T10:27:42;10.70;;;2.07;;
4698;SDS011;33708;49.466;11.176;2022-07-09T10:33:54;6.70;;;1.77;;
4698;SDS011;33708;49.466;11.176;2022-07-09T10:35:47;10.43;;;1.90;;
4698;SDS011;33708;49.466;11.176;2022-07-09T10:38:19;7.77;;;2.03;;
4698;SDS011;33708;49.466;11.176;2022-07-09T10:40:48;6.87;;;1.87;;
4698;SDS011;33708;49.466;11.176;2022-07-09T10:46:11;5.43;;;1.70;;
4698;SDS011;33708;49.466;11.176;2022-07-09T10:48:38;9.23;;;2.00;;
4698;SDS011;33708;49.466;11.176;2022-07-09T10:51:03;7.30;;;1.80;;
4698;SDS011;33708;49.466;11.176;2022-07-09T10:53:29;10.00;;;1.87;;
4698;SDS011;33708;49.466;11.176;2022-07-09T10:55:55;7.33;;;1.73;;
4698;SDS011;33708;49.466;11.176;2022-07-09T10:58:21;5.70;;;1.80;;
4698;SDS011;33708;49.466;11.176;2022-07-09T11:00:55;6.97;;;1.90;;
4698;SDS011;33708;49.466;11.176;2022-07-09T11:03:26;7.13;;;1.47;;
4698;SDS011;33708;49.466;11.176;2022-07-09T11:05:52;8.00;;;2.10;;
4698;SDS011;33708;49.466;11.176;2022-07-09T11:08:18;6.80;;;1.77;;
4698;SDS011;33708;49.466;11.176;2022-07-09T11:10:44;9.40;;;1.73;;
4698;SDS011;33708;49.466;11.176;2022-07-09T11:13:09;6.23;;;1.73;;
4698;SDS011;33708;49.466;11.176;2022-07-09T11:15:35;8.03;;;2.10;;
4698;SDS011;33708;49.466;11.176;2022-07-09T11:18:03;9.40;;;2.20;;
4698;SDS011;33708;49.466;11.176;2022-07-09T11:20:39;7.57;;;2.30;;
4698;SDS011;33708;49.466;11.176;2022-07-09T11:23:14;6.63;;;1.87;;
4698;SDS011;33708;49.466;11.176;2022-07-09T11:25:44;6.80;;;1.60;;
4698;SDS011;33708;49.466;11.176;2022-07-09T11:28:24;9.03;;;1.90;;
4698;SDS011;33708;49.466;11.176;2022-07-09T11:31:04;14.40;;;2.20;;
4698;SDS011;33708;49.466;11.176;2022-07-09T11:33:30;10.23;;;2.17;;
4698;SDS011;33708;49.466;11.176;2022-07-09T11:36:15;6.57;;;2.10;;
4698;SDS011;33708;49.466;11.176;2022-07-09T11:38:46;6.60;;;2.10;;
4698;SDS011;33708;49.466;11.176;2022-07-09T11:41:15;5.23;;;1.63;;
4698;SDS011;33708;49.466;11.176;2022-07-09T11:43:45;8.97;;;1.87;;
4698;SDS011;33708;49.466;11.176;2022-07-09T11:46:17;8.57;;;2.33;;
4698;SDS011;33708;49.466;11.176;2022-07-09T11:48:53;5.93;;;2.00;;
4698;SDS011;33708;49.466;11.176;2022-07-09T11:51:53;7.50;;;1.97;;
4698;SDS011;33708;49.466;11.176;2022-07-09T11:54:11;5.80;;;1.63;;
4698;SDS011;33708;49.466;11.176;2022-07-09T11:56:43;6.23;;;1.83;;
4698;SDS011;33708;49.466;11.176;2022-07-09T11:59:10;8.90;;;1.80;;
4698;SDS011;33708;49.466;11.176;2022-07-09T12:01:36;10.60;;;2.10;;
4698;SDS011;33708;49.466;11.176;2022-07-09T12:04:03;8.70;;;2.77;;
4698;SDS011;33708;49.466;11.176;2022-07-09T12:06:29;7.13;;;1.90;;
4698;SDS011;33708;49.466;11.176;2022-07-09T12:08:59;9.70;;;2.20;;
4698;SDS011;33708;49.466;11.176;2022-07-09T12:11:29;6.60;;;1.90;;
4698;SDS011;33708;49.466;11.176;2022-07-09T12:13:55;7.27;;;1.83;;
4698;SDS011;33708;49.466;11.176;2022-07-09T12:16:21;8.07;;;1.85;;
4698;SDS011;33708;49.466;11.176;2022-07-09T12:18:47;7.70;;;1.93;;
4698;SDS011;33708;49.466;11.176;2022-07-09T12:21:12;9.03;;;2.40;;
4698;SDS011;33708;49.466;11.176;2022-07-09T12:23:38;5.50;;;2.03;;
4698;SDS011;33708;49.466;11.176;2022-07-09T12:26:04;6.17;;;1.97;;
4698;SDS011;33708;49.466;11.176;2022-07-09T12:28:29;6.47;;;2.00;;
4698;SDS011;33708;49.466;11.176;2022-07-09T12:30:55;8.60;;;1.60;;
4698;SDS011;33708;49.466;11.176;2022-07-09T12:33:21;5.33;;;1.83;;
4698;SDS011;33708;49.466;11.176;2022-07-09T12:35:46;7.03;;;2.17;;
4698;SDS011;33708;49.466;11.176;2022-07-09T12:38:12;8.83;;;2.53;;
4698;SDS011;33708;49.466;11.176;2022-07-09T12:40:37;5.63;;;1.80;;
4698;SDS011;33708;49.466;11.176;2022-07-09T12:43:03;5.80;;;1.73;;
4698;SDS011;33708;49.466;11.176;2022-07-09T12:45:29;9.23;;;2.20;;
4698;SDS011;33708;49.466;11.176;2022-07-09T12:47:54;6.07;;;1.90;;
4698;SDS011;33708;49.466;11.176;2022-07-09T12:50:20;5.83;;;2.07;;
4698;SDS011;33708;49.466;11.176;2022-07-09T12:52:46;7.47;;;2.00;;
4698;SDS011;33708;49.466;11.176;2022-07-09T12:55:11;9.47;;;2.30;;
4698;SDS011;33708;49.466;11.176;2022-07-09T12:57:37;6.10;;;1.80;;
4698;SDS011;33708;49.466;11.176;2022-07-09T13:00:04;6.90;;;1.90;;
4698;SDS011;33708;49.466;11.176;2022-07-09T13:02:30;5.20;;;1.97;;
4698;SDS011;33708;49.466;11.176;2022-07-09T13:04:56;7.87;;;2.27;;
4698;SDS011;33708;49.466;11.176;2022-07-09T13:07:21;12.60;;;2.33;;
4698;SDS011;33708;49.466;11.176;2022-07-09T13:09:47;8.37;;;2.00;;
4698;SDS011;33708;49.466;11.176;2022-07-09T13:12:13;7.00;;;2.27;;
4698;SDS011;33708;49.466;11.176;2022-07-09T13:14:39;8.20;;;2.90;;
4698;SDS011;33708;49.466;11.176;2022-07-09T13:17:04;9.37;;;3.37;;
4698;SDS011;33708;49.466;11.176;2022-07-09T13:19:30;10.80;;;3.50;;
4698;SDS011;33708;49.466;11.176;2022-07-09T13:21:56;8.07;;;3.17;;
4698;SDS011;33708;49.466;11.176;2022-07-09T13:24:21;7.20;;;2.27;;
4698;SDS011;33708;49.466;11.176;2022-07-09T13:26:47;11.20;;;2.47;;
4698;SDS011;33708;49.466;11.176;2022-07-09T13:29:12;12.63;;;2.23;;
4698;SDS011;33708;49.466;11.176;2022-07-09T13:31:38;19.47;;;1.90;;
4698;SDS011;33708;49.466;11.176;2022-07-09T13:34:04;7.37;;;1.87;;
4698;SDS011;33708;49.466;11.176;2022-07-09T13:36:29;7.93;;;2.40;;
4698;SDS011;33708;49.466;11.176;2022-07-09T13:38:55;4.83;;;1.73;;
4698;SDS011;33708;49.466;11.176;2022-07-09T13:41:24;9.07;;;2.10;;
4698;SDS011;33708;49.466;11.176;2022-07-09T13:43:50;7.30;;;2.33;;
4698;SDS011;33708;49.466;11.176;2022-07-09T13:46:16;6.20;;;1.80;;
4698;SDS011;33708;49.466;11.176;2022-07-09T13:48:41;9.43;;;2.13;;
4698;SDS011;33708;49.466;11.176;2022-07-09T13:51:07;6.17;;;1.83;;
4698;SDS011;33708;49.466;11.176;2022-07-09T13:53:32;7.10;;;2.57;;
4698;SDS011;33708;49.466;11.176;2022-07-09T13:55:59;7.40;;;2.00;;
4698;SDS011;33708;49.466;11.176;2022-07-09T13:58:24;9.50;;;2.43;;
4698;SDS011;33708;49.466;11.176;2022-07-09T14:00:51;5.77;;;2.17;;
4698;SDS011;33708;49.466;11.176;2022-07-09T14:03:17;7.17;;;2.10;;
4698;SDS011;33708;49.466;11.176;2022-07-09T14:05:43;9.43;;;2.33;;
4698;SDS011;33708;49.466;11.176;2022-07-09T14:08:08;7.83;;;2.20;;
4698;SDS011;33708;49.466;11.176;2022-07-09T14:10:34;5.37;;;2.10;;
4698;SDS011;33708;49.466;11.176;2022-07-09T14:13:00;6.53;;;2.20;;
4698;SDS011;33708;49.466;11.176;2022-07-09T14:15:26;5.97;;;2.17;;
4698;SDS011;33708;49.466;11.176;2022-07-09T14:17:52;6.43;;;1.80;;
4698;SDS011;33708;49.466;11.176;2022-07-09T14:20:17;6.07;;;1.97;;
4698;SDS011;33708;49.466;11.176;2022-07-09T14:22:44;7.43;;;1.90;;
4698;SDS011;33708;49.466;11.176;2022-07-09T14:25:10;9.57;;;2.63;;
4698;SDS011;33708;49.466;11.176;2022-07-09T14:27:36;7.77;;;2.33;;
4698;SDS011;33708;49.466;11.176;2022-07-09T14:30:02;6.23;;;2.00;;
4698;SDS011;33708;49.466;11.176;2022-07-09T14:32:28;12.33;;;2.20;;
4698;SDS011;33708;49.466;11.176;2022-07-09T14:34:54;6.00;;;2.20;;
4698;SDS011;33708;49.466;11.176;2022-07-09T14:37:19;7.63;;;2.13;;
4698;SDS011;33708;49.466;11.176;2022-07-09T14:39:45;7.10;;;2.50;;
4698;SDS011;33708;49.466;11.176;2022-07-09T14:42:11;5.90;;;2.10;;
4698;SDS011;33708;49.466;11.176;2022-07-09T14:44:36;8.27;;;2.43;;
4698;SDS011;33708;49.466;11.176;2022-07-09T14:47:02;6.87;;;2.33;;
4698;SDS011;33708;49.466;11.176;2022-07-09T14:49:28;7.93;;;2.50;;
4698;SDS011;33708;49.466;11.176;2022-07-09T14:51:54;8.30;;;2.43;;